AUA295 LOWW-EBBR
Flight info
| Callsign | AUA295 |
|---|---|
| Flight time | N/A |
| Altitude | 32000 |
| Route | MEDIX DCT LAMSI DCT MAMOR/N0387F240 L610 INBED DCT GEBSO DCT BATTY |
| Aircraft | A320/M-SDE3FGHIRWY/LB1 |
Departure
| Time | 2026-04-26 21:50 |
|---|---|
| Airport | Vienna International Airport (LOWW) |
Arrival
| Time | N/A |
|---|---|
| Airport | Brussels Airport (EBBR) |
| Time | Latitude | Longitude | Altitude | Speed | Heading |
|---|---|---|---|---|---|
| 2026-04-26 21:31 | 48.11691 | 16.56845 | 620 ft | 0 kts | 25° |
| 2026-04-26 21:42 | 48.11686 | 16.56841 | 623 ft | 2 kts | 25° |
| 2026-04-26 21:42 | 48.11668 | 16.56829 | 622 ft | 3 kts | 22° |
| 2026-04-26 21:43 | 48.11649 | 16.56818 | 620 ft | 3 kts | 16° |
| 2026-04-26 21:43 | 48.11630 | 16.56812 | 617 ft | 3 kts | 358° |
| 2026-04-26 21:43 | 48.11614 | 16.56816 | 619 ft | 2 kts | 308° |
| 2026-04-26 21:43 | 48.11610 | 16.56822 | 618 ft | 0 kts | 296° |
| 2026-04-26 21:45 | 48.11618 | 16.56799 | 614 ft | 6 kts | 296° |
| 2026-04-26 21:45 | 48.11648 | 16.56706 | 616 ft | 14 kts | 296° |
| 2026-04-26 21:46 | 48.11703 | 16.56541 | 617 ft | 20 kts | 296° |
| 2026-04-26 21:46 | 48.11761 | 16.56350 | 622 ft | 17 kts | 283° |
| 2026-04-26 21:46 | 48.11688 | 16.56266 | 609 ft | 13 kts | 206° |
| 2026-04-26 21:46 | 48.11615 | 16.56199 | 614 ft | 11 kts | 218° |
| 2026-04-26 21:47 | 48.11553 | 16.56219 | 614 ft | 12 kts | 122° |
| 2026-04-26 21:47 | 48.11506 | 16.56365 | 616 ft | 19 kts | 117° |
| 2026-04-26 21:47 | 48.11438 | 16.56572 | 619 ft | 24 kts | 115° |
| 2026-04-26 21:47 | 48.11362 | 16.56806 | 613 ft | 26 kts | 115° |
| 2026-04-26 21:48 | 48.11282 | 16.57051 | 609 ft | 27 kts | 116° |
| 2026-04-26 21:48 | 48.11207 | 16.57237 | 614 ft | 15 kts | 163° |
| 2026-04-26 21:48 | 48.11119 | 16.57190 | 617 ft | 13 kts | 204° |
| 2026-04-26 21:48 | 48.11059 | 16.57116 | 615 ft | 10 kts | 257° |
| 2026-04-26 21:49 | 48.11087 | 16.57003 | 618 ft | 14 kts | 296° |
| 2026-04-26 21:49 | 48.11195 | 16.56673 | 613 ft | 69 kts | 296° |
| 2026-04-26 21:49 | 48.11500 | 16.55738 | 612 ft | 129 kts | 296° |
| 2026-04-26 21:49 | 48.11958 | 16.54317 | 730 ft | 163 kts | 296° |
| 2026-04-26 21:50 | 48.12195 | 16.52667 | 1312 ft | 168 kts | 260° |
| 2026-04-26 21:50 | 48.12012 | 16.51512 | 1694 ft | 175 kts | 257° |
| 2026-04-26 21:50 | 48.11700 | 16.49022 | 2263 ft | 195 kts | 261° |
| 2026-04-26 21:50 | 48.11458 | 16.46892 | 2572 ft | 220 kts | 259° |
| 2026-04-26 21:51 | 48.11097 | 16.44524 | 2997 ft | 246 kts | 256° |
| 2026-04-26 21:51 | 48.10658 | 16.41947 | 3628 ft | 262 kts | 256° |
| 2026-04-26 21:51 | 48.10189 | 16.39282 | 4514 ft | 266 kts | 256° |
| 2026-04-26 21:51 | 48.09834 | 16.36597 | 5451 ft | 268 kts | 268° |
| 2026-04-26 21:52 | 48.09856 | 16.33831 | 6462 ft | 265 kts | 272° |
| 2026-04-26 21:52 | 48.09901 | 16.31085 | 7484 ft | 262 kts | 273° |
| 2026-04-26 21:52 | 48.09946 | 16.28359 | 8405 ft | 263 kts | 273° |
| 2026-04-26 21:52 | 48.09990 | 16.25612 | 9267 ft | 265 kts | 273° |
| 2026-04-26 21:53 | 48.10039 | 16.22838 | 10120 ft | 267 kts | 274° |
| 2026-04-26 21:53 | 48.10268 | 16.20073 | 10917 ft | 268 kts | 285° |
| 2026-04-26 21:53 | 48.10867 | 16.17347 | 11289 ft | 287 kts | 290° |
| 2026-04-26 21:53 | 48.11586 | 16.14436 | 11507 ft | 310 kts | 291° |
| 2026-04-26 21:54 | 48.12368 | 16.11299 | 11665 ft | 333 kts | 291° |
| 2026-04-26 21:54 | 48.13204 | 16.07944 | 11798 ft | 355 kts | 291° |
| 2026-04-26 21:54 | 48.14082 | 16.04387 | 11943 ft | 372 kts | 290° |
| 2026-04-26 21:54 | 48.14984 | 16.00711 | 12403 ft | 380 kts | 290° |
| 2026-04-26 21:55 | 48.15900 | 15.96969 | 12962 ft | 384 kts | 290° |
| 2026-04-26 21:55 | 48.16821 | 15.93189 | 13540 ft | 389 kts | 290° |
| 2026-04-26 21:55 | 48.17752 | 15.89359 | 14132 ft | 393 kts | 290° |
| 2026-04-26 21:55 | 48.18690 | 15.85494 | 14640 ft | 397 kts | 290° |
| 2026-04-26 21:56 | 48.19636 | 15.81595 | 15152 ft | 400 kts | 290° |
| 2026-04-26 21:56 | 48.20589 | 15.77661 | 15649 ft | 403 kts | 290° |
| 2026-04-26 21:56 | 48.21546 | 15.73703 | 16117 ft | 406 kts | 290° |
| 2026-04-26 21:56 | 48.22511 | 15.69710 | 16598 ft | 408 kts | 290° |
| 2026-04-26 21:57 | 48.23479 | 15.65693 | 17057 ft | 411 kts | 290° |
| 2026-04-26 21:57 | 48.24449 | 15.61643 | 17501 ft | 414 kts | 290° |
| 2026-04-26 21:57 | 48.25412 | 15.57619 | 17937 ft | 417 kts | 290° |
| 2026-04-26 21:57 | 48.26396 | 15.53506 | 18367 ft | 420 kts | 290° |
| 2026-04-26 21:58 | 48.27385 | 15.49369 | 18741 ft | 423 kts | 290° |
| 2026-04-26 21:58 | 48.28377 | 15.45205 | 19092 ft | 425 kts | 289° |
| 2026-04-26 21:58 | 48.29373 | 15.41020 | 19462 ft | 427 kts | 289° |
| 2026-04-26 21:58 | 48.30331 | 15.36792 | 19818 ft | 428 kts | 288° |
| 2026-04-26 21:59 | 48.31233 | 15.32516 | 20170 ft | 430 kts | 287° |
| 2026-04-26 21:59 | 48.32101 | 15.28208 | 20501 ft | 432 kts | 286° |
| 2026-04-26 21:59 | 48.32959 | 15.23866 | 20812 ft | 434 kts | 286° |
| 2026-04-26 21:59 | 48.33817 | 15.19511 | 21103 ft | 436 kts | 286° |
| 2026-04-26 22:00 | 48.34690 | 15.15135 | 21411 ft | 437 kts | 287° |
| 2026-04-26 22:00 | 48.35573 | 15.10752 | 21697 ft | 439 kts | 287° |
| 2026-04-26 22:00 | 48.36466 | 15.06352 | 21964 ft | 441 kts | 287° |
| 2026-04-26 22:00 | 48.37366 | 15.01930 | 22228 ft | 443 kts | 287° |
| 2026-04-26 22:01 | 48.38269 | 14.97490 | 22478 ft | 445 kts | 287° |
| 2026-04-26 22:01 | 48.39172 | 14.93036 | 22824 ft | 446 kts | 287° |
| 2026-04-26 22:01 | 48.40074 | 14.88560 | 22981 ft | 448 kts | 287° |
| 2026-04-26 22:01 | 48.40972 | 14.84071 | 23238 ft | 449 kts | 286° |
| 2026-04-26 22:02 | 48.41870 | 14.79561 | 23478 ft | 451 kts | 286° |
| 2026-04-26 22:02 | 48.42466 | 14.76562 | 23633 ft | 451 kts | 286° |
| 2026-04-26 22:02 | 48.43669 | 14.70500 | 23988 ft | 451 kts | 286° |
| 2026-04-26 22:02 | 48.44553 | 14.66044 | 24258 ft | 450 kts | 286° |
| 2026-04-26 22:03 | 48.45448 | 14.61528 | 24551 ft | 449 kts | 286° |
| 2026-04-26 22:03 | 48.46338 | 14.57033 | 24859 ft | 447 kts | 286° |
| 2026-04-26 22:03 | 48.47224 | 14.52545 | 25181 ft | 446 kts | 286° |
| 2026-04-26 22:03 | 48.48101 | 14.48085 | 25487 ft | 444 kts | 286° |
| 2026-04-26 22:04 | 48.48979 | 14.43608 | 25804 ft | 443 kts | 286° |
| 2026-04-26 22:04 | 48.49848 | 14.39169 | 26122 ft | 441 kts | 286° |
| 2026-04-26 22:04 | 48.50715 | 14.34736 | 26443 ft | 440 kts | 285° |
| 2026-04-26 22:04 | 48.51579 | 14.30318 | 26768 ft | 439 kts | 285° |
| 2026-04-26 22:05 | 48.52438 | 14.25904 | 27109 ft | 437 kts | 285° |
| 2026-04-26 22:05 | 48.53290 | 14.21516 | 27443 ft | 436 kts | 285° |
| 2026-04-26 22:05 | 48.54140 | 14.17129 | 27781 ft | 434 kts | 285° |
| 2026-04-26 22:05 | 48.54983 | 14.12770 | 28120 ft | 433 kts | 285° |
| 2026-04-26 22:06 | 48.55814 | 14.08469 | 28471 ft | 432 kts | 285° |
| 2026-04-26 22:06 | 48.56650 | 14.04126 | 28843 ft | 430 kts | 285° |
| 2026-04-26 22:06 | 48.57480 | 13.99798 | 29171 ft | 429 kts | 285° |
| 2026-04-26 22:06 | 48.58307 | 13.95465 | 29501 ft | 428 kts | 285° |
| 2026-04-26 22:07 | 48.59130 | 13.91148 | 29854 ft | 427 kts | 285° |
| 2026-04-26 22:07 | 48.59951 | 13.86842 | 30186 ft | 426 kts | 285° |
| 2026-04-26 22:07 | 48.60768 | 13.82553 | 30496 ft | 425 kts | 285° |
| 2026-04-26 22:07 | 48.61309 | 13.79712 | 30683 ft | 425 kts | 285° |
| 2026-04-26 22:08 | 48.62395 | 13.73978 | 31043 ft | 424 kts | 285° |
| 2026-04-26 22:08 | 48.64759 | 13.61392 | 31819 ft | 423 kts | 285° |
| 2026-04-26 22:09 | 48.65561 | 13.57112 | 32086 ft | 423 kts | 285° |
| 2026-04-26 22:09 | 48.66343 | 13.52820 | 32361 ft | 423 kts | 285° |
| 2026-04-26 22:09 | 48.67105 | 13.48525 | 32626 ft | 423 kts | 285° |
| 2026-04-26 22:09 | 48.67854 | 13.44228 | 32905 ft | 422 kts | 285° |
| 2026-04-26 22:10 | 48.69279 | 13.36008 | 33434 ft | 421 kts | 285° |
| 2026-04-26 22:10 | 48.70022 | 13.31725 | 33704 ft | 421 kts | 285° |
| 2026-04-26 22:10 | 48.70766 | 13.27446 | 33983 ft | 420 kts | 285° |
| 2026-04-26 22:11 | 48.71513 | 13.23174 | 34261 ft | 419 kts | 285° |
| 2026-04-26 22:11 | 48.72258 | 13.18912 | 34499 ft | 419 kts | 285° |
| 2026-04-26 22:11 | 48.73002 | 13.14637 | 34736 ft | 418 kts | 285° |
| 2026-04-26 22:11 | 48.73741 | 13.10378 | 34960 ft | 418 kts | 285° |
| 2026-04-26 22:12 | 48.74479 | 13.06119 | 35173 ft | 418 kts | 285° |
| 2026-04-26 22:12 | 48.75214 | 13.01854 | 35377 ft | 418 kts | 285° |
| 2026-04-26 22:12 | 48.75946 | 12.97595 | 35579 ft | 418 kts | 285° |
| 2026-04-26 22:12 | 48.76674 | 12.93331 | 35768 ft | 418 kts | 285° |
| 2026-04-26 22:13 | 48.77400 | 12.89068 | 35957 ft | 418 kts | 285° |
| 2026-04-26 22:13 | 48.78125 | 12.84802 | 36142 ft | 417 kts | 285° |
| 2026-04-26 22:13 | 48.78839 | 12.80598 | 36253 ft | 419 kts | 285° |
| 2026-04-26 22:13 | 48.79567 | 12.76300 | 36272 ft | 422 kts | 285° |
| 2026-04-26 22:14 | 48.81037 | 12.67613 | 36268 ft | 428 kts | 285° |
| 2026-04-26 22:14 | 48.82510 | 12.58860 | 36265 ft | 429 kts | 285° |
| 2026-04-26 22:15 | 48.83979 | 12.50079 | 36265 ft | 429 kts | 285° |
| 2026-04-26 22:15 | 48.85445 | 12.41291 | 36268 ft | 430 kts | 285° |
| 2026-04-26 22:16 | 48.86901 | 12.32478 | 36261 ft | 430 kts | 285° |
| 2026-04-26 22:16 | 48.88381 | 12.23681 | 36259 ft | 429 kts | 289° |
| 2026-04-26 22:17 | 48.90840 | 12.15470 | 36258 ft | 428 kts | 298° |
| 2026-04-26 22:17 | 48.93543 | 12.07402 | 36258 ft | 428 kts | 298° |
| 2026-04-26 22:18 | 48.96233 | 11.99321 | 36262 ft | 428 kts | 297° |
| 2026-04-26 22:18 | 48.98908 | 11.91220 | 36260 ft | 428 kts | 297° |
| 2026-04-26 22:19 | 49.01579 | 11.83115 | 36265 ft | 428 kts | 297° |
| 2026-04-26 22:19 | 49.04236 | 11.75052 | 36270 ft | 428 kts | 297° |
| 2026-04-26 22:20 | 49.06475 | 11.68249 | 36264 ft | 428 kts | 297° |
| 2026-04-26 22:20 | 49.09564 | 11.58802 | 36268 ft | 428 kts | 297° |
| 2026-04-26 22:21 | 49.12210 | 11.50661 | 36269 ft | 428 kts | 297° |
| 2026-04-26 22:21 | 49.14857 | 11.42517 | 36279 ft | 428 kts | 297° |
| 2026-04-26 22:22 | 49.17497 | 11.34380 | 36292 ft | 428 kts | 297° |
| 2026-04-26 22:22 | 49.20129 | 11.26222 | 36285 ft | 427 kts | 298° |
| 2026-04-26 22:23 | 49.23503 | 11.18820 | 36287 ft | 425 kts | 314° |
| 2026-04-26 22:23 | 49.27584 | 11.12282 | 36294 ft | 425 kts | 314° |
| 2026-04-26 22:24 | 49.31655 | 11.05716 | 36281 ft | 425 kts | 314° |
| 2026-04-26 22:24 | 49.35711 | 10.99132 | 36280 ft | 425 kts | 314° |
| 2026-04-26 22:25 | 49.39321 | 10.92062 | 36280 ft | 426 kts | 300° |
| 2026-04-26 22:25 | 49.41839 | 10.83813 | 36272 ft | 427 kts | 296° |
| 2026-04-26 22:26 | 49.44302 | 10.75507 | 36267 ft | 427 kts | 296° |
| 2026-04-26 22:26 | 49.46761 | 10.67206 | 36269 ft | 427 kts | 296° |
| 2026-04-26 22:27 | 49.49220 | 10.58882 | 36276 ft | 427 kts | 296° |
| 2026-04-26 22:27 | 49.51669 | 10.50548 | 36272 ft | 427 kts | 296° |
| 2026-04-26 22:28 | 49.54109 | 10.42210 | 36270 ft | 428 kts | 296° |
| 2026-04-26 22:28 | 49.56543 | 10.33850 | 36273 ft | 428 kts | 296° |
| 2026-04-26 22:29 | 49.58976 | 10.25491 | 36276 ft | 428 kts | 296° |
| 2026-04-26 22:29 | 49.61391 | 10.17169 | 36275 ft | 428 kts | 296° |
| 2026-04-26 22:30 | 49.63809 | 10.08787 | 36277 ft | 428 kts | 296° |
| 2026-04-26 22:30 | 49.66225 | 10.00386 | 36276 ft | 428 kts | 295° |
| 2026-04-26 22:31 | 49.68636 | 9.91973 | 36272 ft | 428 kts | 295° |
| 2026-04-26 22:31 | 49.71041 | 9.83559 | 36272 ft | 428 kts | 295° |
| 2026-04-26 22:32 | 49.73443 | 9.75133 | 36268 ft | 428 kts | 295° |
| 2026-04-26 22:32 | 49.75430 | 9.68125 | 36269 ft | 428 kts | 295° |
| 2026-04-26 22:33 | 49.79001 | 9.55457 | 36269 ft | 428 kts | 295° |
| 2026-04-26 22:34 | 49.81771 | 9.45628 | 36277 ft | 429 kts | 295° |
| 2026-04-26 22:34 | 49.83759 | 9.38535 | 36281 ft | 429 kts | 295° |
| 2026-04-26 22:35 | 49.86116 | 9.30115 | 36280 ft | 428 kts | 295° |
| 2026-04-26 22:35 | 49.88477 | 9.21641 | 36281 ft | 428 kts | 295° |
| 2026-04-26 22:36 | 49.90826 | 9.13147 | 36280 ft | 428 kts | 295° |
| 2026-04-26 22:36 | 49.93167 | 9.04657 | 36280 ft | 428 kts | 295° |
| 2026-04-26 22:37 | 49.95508 | 8.96168 | 36286 ft | 428 kts | 295° |
| 2026-04-26 22:37 | 49.97839 | 8.87671 | 36285 ft | 427 kts | 295° |
| 2026-04-26 22:38 | 50.00170 | 8.79184 | 36284 ft | 427 kts | 295° |
| 2026-04-26 22:38 | 50.02490 | 8.70681 | 36280 ft | 427 kts | 294° |
| 2026-04-26 22:39 | 50.04795 | 8.62170 | 36276 ft | 427 kts | 294° |
| 2026-04-26 22:39 | 50.07094 | 8.53637 | 36277 ft | 428 kts | 294° |
| 2026-04-26 22:40 | 50.09396 | 8.45095 | 36278 ft | 428 kts | 294° |
| 2026-04-26 22:40 | 50.11681 | 8.36600 | 36275 ft | 428 kts | 294° |
| 2026-04-26 22:41 | 50.13968 | 8.28029 | 36278 ft | 429 kts | 294° |
| 2026-04-26 22:41 | 50.16261 | 8.19427 | 36279 ft | 429 kts | 294° |
| 2026-04-26 22:42 | 50.18549 | 8.10833 | 36283 ft | 429 kts | 294° |
| 2026-04-26 22:42 | 50.20826 | 8.02211 | 36281 ft | 430 kts | 293° |
| 2026-04-26 22:43 | 50.23095 | 7.93570 | 36281 ft | 430 kts | 293° |
| 2026-04-26 22:43 | 50.25364 | 7.84934 | 36277 ft | 430 kts | 293° |
| 2026-04-26 22:44 | 50.27629 | 7.76292 | 36275 ft | 430 kts | 293° |
| 2026-04-26 22:44 | 50.29890 | 7.67619 | 36274 ft | 431 kts | 293° |
| 2026-04-26 22:45 | 50.32144 | 7.58940 | 36277 ft | 431 kts | 293° |
| 2026-04-26 22:45 | 50.34392 | 7.50246 | 36279 ft | 431 kts | 292° |
| 2026-04-26 22:46 | 50.36631 | 7.41536 | 36280 ft | 431 kts | 292° |
| 2026-04-26 22:46 | 50.38866 | 7.32805 | 36278 ft | 432 kts | 292° |
| 2026-04-26 22:47 | 50.41105 | 7.24065 | 36275 ft | 432 kts | 292° |
| 2026-04-26 22:47 | 50.43333 | 7.15316 | 36279 ft | 432 kts | 292° |
| 2026-04-26 22:48 | 50.45542 | 7.06604 | 36279 ft | 433 kts | 292° |
| 2026-04-26 22:48 | 50.47754 | 6.97812 | 36279 ft | 433 kts | 292° |
| 2026-04-26 22:49 | 50.49966 | 6.89008 | 36279 ft | 433 kts | 292° |
| 2026-04-26 22:49 | 50.52171 | 6.80190 | 36282 ft | 434 kts | 291° |
| 2026-04-26 22:50 | 50.54381 | 6.71354 | 36284 ft | 434 kts | 290° |
| 2026-04-26 22:50 | 50.55801 | 6.62122 | 36283 ft | 435 kts | 281° |
| 2026-04-26 22:51 | 50.56931 | 6.52755 | 36284 ft | 436 kts | 281° |
| 2026-04-26 22:51 | 50.58051 | 6.43450 | 36284 ft | 436 kts | 281° |
| 2026-04-26 22:52 | 50.59178 | 6.34051 | 36283 ft | 437 kts | 281° |
| 2026-04-26 22:52 | 50.60298 | 6.24659 | 36287 ft | 437 kts | 281° |
| 2026-04-26 22:53 | 50.61406 | 6.15231 | 36289 ft | 438 kts | 281° |
| 2026-04-26 22:53 | 50.62507 | 6.05797 | 36292 ft | 438 kts | 281° |
| 2026-04-26 22:54 | 50.63603 | 5.96336 | 36062 ft | 439 kts | 280° |
| 2026-04-26 22:54 | 50.64145 | 5.91604 | 35619 ft | 440 kts | 280° |
| 2026-04-26 22:54 | 50.64762 | 5.86872 | 34742 ft | 442 kts | 285° |
| 2026-04-26 22:54 | 50.65790 | 5.82291 | 33765 ft | 445 kts | 294° |
| 2026-04-26 22:55 | 50.67172 | 5.77938 | 32833 ft | 445 kts | 296° |
| 2026-04-26 22:55 | 50.68581 | 5.73590 | 31838 ft | 447 kts | 296° |
| 2026-04-26 22:55 | 50.69991 | 5.69206 | 30893 ft | 447 kts | 296° |
| 2026-04-26 22:55 | 50.71397 | 5.64815 | 29759 ft | 450 kts | 296° |
| 2026-04-26 22:56 | 50.72804 | 5.60402 | 28620 ft | 451 kts | 296° |
| 2026-04-26 22:56 | 50.74208 | 5.55987 | 27549 ft | 450 kts | 296° |
| 2026-04-26 22:56 | 50.75621 | 5.51547 | 26336 ft | 453 kts | 296° |
| 2026-04-26 22:56 | 50.77021 | 5.47149 | 25173 ft | 456 kts | 296° |
| 2026-04-26 22:57 | 50.78446 | 5.42672 | 24036 ft | 457 kts | 296° |
| 2026-04-26 22:57 | 50.79876 | 5.38182 | 22881 ft | 457 kts | 296° |
| 2026-04-26 22:57 | 50.81293 | 5.33723 | 22052 ft | 450 kts | 296° |
| 2026-04-26 22:57 | 50.82685 | 5.29327 | 21218 ft | 445 kts | 296° |
| 2026-04-26 22:58 | 50.84060 | 5.24968 | 20397 ft | 441 kts | 296° |
| 2026-04-26 22:58 | 50.85420 | 5.20638 | 19583 ft | 438 kts | 296° |
| 2026-04-26 22:58 | 50.86768 | 5.16333 | 18789 ft | 435 kts | 296° |
| 2026-04-26 22:58 | 50.88004 | 5.11985 | 17947 ft | 433 kts | 290° |
| 2026-04-26 22:59 | 50.88895 | 5.08033 | 17281 ft | 428 kts | 290° |
| 2026-04-26 22:59 | 50.89894 | 5.03620 | 16563 ft | 424 kts | 290° |
| 2026-04-26 22:59 | 50.90886 | 4.99242 | 15847 ft | 420 kts | 290° |
| 2026-04-26 22:59 | 50.91868 | 4.94913 | 15169 ft | 416 kts | 290° |
| 2026-04-26 23:00 | 50.92837 | 4.90625 | 14506 ft | 412 kts | 290° |
| 2026-04-26 23:00 | 50.93794 | 4.86365 | 13829 ft | 408 kts | 290° |
| 2026-04-26 23:00 | 50.94736 | 4.82152 | 13176 ft | 403 kts | 290° |
| 2026-04-26 23:00 | 50.95482 | 4.77885 | 12550 ft | 399 kts | 282° |
| 2026-04-26 23:01 | 50.95776 | 4.73549 | 11923 ft | 395 kts | 275° |
| 2026-04-26 23:01 | 50.95943 | 4.69244 | 11578 ft | 383 kts | 275° |
| 2026-04-26 23:01 | 50.96103 | 4.65121 | 11452 ft | 366 kts | 275° |
| 2026-04-26 23:01 | 50.96255 | 4.61179 | 11326 ft | 350 kts | 275° |
| 2026-04-26 23:02 | 50.96397 | 4.57404 | 11203 ft | 336 kts | 275° |
| 2026-04-26 23:02 | 50.96437 | 4.56343 | 11166 ft | 333 kts | 275° |
| 2026-04-26 23:02 | 50.96439 | 4.56284 | 11160 ft | 333 kts | 275° |
| 2026-04-26 23:03 | 50.96443 | 4.56163 | 11158 ft | 332 kts | 275° |
| 2026-04-26 23:03 | 50.96461 | 4.55678 | 11150 ft | 329 kts | 276° |
| 2026-04-26 23:03 | 50.96489 | 4.55199 | 11139 ft | 325 kts | 277° |
| 2026-04-26 23:04 | 50.96535 | 4.54611 | 11101 ft | 321 kts | 281° |
| 2026-04-26 23:04 | 50.96596 | 4.54036 | 11049 ft | 316 kts | 279° |
| 2026-04-26 23:04 | 50.96788 | 4.52923 | 10784 ft | 315 kts | 294° |
| 2026-04-26 23:08 | 50.97013 | 4.52059 | 10426 ft | 309 kts | 289° |
| 2026-04-26 23:08 | 50.97918 | 4.49089 | 8964 ft | 346 kts | 298° |
| 2026-04-26 23:08 | 50.98887 | 4.46028 | 9201 ft | 322 kts | 295° |
| 2026-04-26 23:09 | 50.99275 | 4.44306 | 9158 ft | 315 kts | 283° |
| 2026-04-26 23:09 | 50.99340 | 4.43754 | 9137 ft | 312 kts | 280° |
| 2026-04-26 23:09 | 50.99381 | 4.42960 | 9061 ft | 310 kts | 270° |
| 2026-04-26 23:09 | 50.99341 | 4.42184 | 8973 ft | 310 kts | 261° |